Time;durP1;ratioP1;P1;durP2;ratioP2;P2;SDS_P1;SDS_P2;PMS_P1;PMS_P2;Temp;Humidity;BMP_temperature;BMP_pressure;BME280_temperature;BME280_humidity;BME280_pressure;Samples;Min_cycle;Max_cycle;Signal;HPM_P1;HPM_P2
2022/03/16 00:00:20;;;;;;;67.92;34.80;;;;;;;1.50;51.48;98596.92;1675830;86;21008;-84
2022/03/16 00:02:49;;;;;;;67.60;33.18;;;;;;;1.47;52.10;98594.25;1675885;86;21032;-83
2022/03/16 00:05:17;;;;;;;74.32;35.08;;;;;;;1.45;51.77;98592.50;1682608;85;21042;-83
2022/03/16 00:07:44;;;;;;;68.90;33.60;;;;;;;1.46;51.91;98579.03;1654690;87;20977;-83
2022/03/16 00:10:12;;;;;;;72.50;34.33;;;;;;;1.44;51.75;98571.16;1690437;85;21062;-83
2022/03/16 00:12:41;;;;;;;73.87;35.98;;;;;;;1.44;51.78;98559.82;1654977;87;21004;-83
2022/03/16 00:15:11;;;;;;;72.55;36.00;;;;;;;1.43;51.60;98549.81;1684430;85;21442;-83
2022/03/16 00:17:37;;;;;;;74.25;33.80;;;;;;;1.41;52.65;98549.34;1676089;86;21437;-84
2022/03/16 00:20:06;;;;;;;72.40;35.23;;;;;;;1.38;52.44;98542.34;1675792;86;21024;-83
2022/03/16 00:22:32;;;;;;;67.92;35.73;;;;;;;1.37;52.17;98544.47;1675955;86;21430;-82
2022/03/16 00:24:59;;;;;;;65.05;33.23;;;;;;;1.37;52.25;98537.08;1672667;85;21016;-83
2022/03/16 00:27:25;;;;;;;66.33;33.35;;;;;;;1.36;52.18;98522.27;1670584;86;21072;-83
2022/03/16 00:29:51;;;;;;;78.05;35.90;;;;;;;1.37;52.22;98518.35;1670638;86;21477;-82
2022/03/16 00:32:18;;;;;;;69.60;35.43;;;;;;;1.37;52.85;98500.07;1670709;86;21052;-82
2022/03/16 00:34:44;;;;;;;69.75;34.08;;;;;;;1.35;52.41;98484.82;1673850;84;21009;-82
2022/03/16 00:37:13;;;;;;;71.60;36.17;;;;;;;1.30;52.49;98486.03;1676086;86;21068;-82
2022/03/16 00:39:39;;;;;;;71.90;35.25;;;;;;;1.28;52.67;98477.73;1676069;86;21056;-82
2022/03/16 00:42:07;;;;;;;69.15;35.13;;;;;;;1.26;52.84;98469.00;1675891;86;21073;-82
2022/03/16 00:44:35;;;;;;;76.80;36.75;;;;;;;1.26;52.79;98463.37;1673438;86;21017;-83
2022/03/16 00:47:04;;;;;;;75.57;34.60;;;;;;;1.27;52.61;98461.61;1667267;85;21096;-83
2022/03/16 00:49:31;;;;;;;74.75;37.67;;;;;;;1.24;52.79;98454.61;1665409;86;21060;-83
2022/03/16 00:51:59;;;;;;;77.40;37.28;;;;;;;1.25;52.49;98472.48;1665093;86;21414;-83
2022/03/16 00:54:29;;;;;;;82.80;37.03;;;;;;;1.24;52.50;98472.03;1666957;86;21436;-83
2022/03/16 00:56:55;;;;;;;79.03;38.13;;;;;;;1.24;52.61;98452.45;1642690;86;21446;-83
2022/03/16 00:59:22;;;;;;;76.55;36.63;;;;;;;1.26;52.95;98454.64;1669966;85;21026;-83
2022/03/16 01:01:48;;;;;;;79.70;37.35;;;;;;;1.23;53.05;98459.80;1669344;86;21042;-83
2022/03/16 01:04:15;;;;;;;83.00;39.80;;;;;;;1.22;52.71;98452.83;1665047;86;21468;-83
2022/03/16 01:06:41;;;;;;;81.97;39.18;;;;;;;1.22;52.85;98458.95;1661345;86;21050;-83
2022/03/16 01:09:08;;;;;;;67.92;36.58;;;;;;;1.21;52.86;98448.06;1662571;86;20983;-83
2022/03/16 01:11:37;;;;;;;74.30;37.20;;;;;;;1.20;52.72;98434.53;1663142;86;21049;-83
2022/03/16 01:14:04;;;;;;;75.78;38.55;;;;;;;1.22;52.68;98422.80;1667589;86;21452;-83
2022/03/16 01:16:32;;;;;;;78.30;37.90;;;;;;;1.20;52.69;98411.48;1670829;85;20998;-83
2022/03/16 01:18:58;;;;;;;79.55;38.30;;;;;;;1.16;52.67;98414.48;1670930;86;21022;-83
2022/03/16 01:21:25;;;;;;;80.17;40.60;;;;;;;1.17;52.61;98389.67;1668122;86;21204;-83
2022/03/16 01:23:51;;;;;;;79.25;38.53;;;;;;;1.17;52.67;98384.45;1666406;85;21023;-83
2022/03/16 01:26:18;;;;;;;85.32;40.75;;;;;;;1.16;52.67;98396.20;1665350;86;21050;-83
2022/03/16 01:28:45;;;;;;;77.25;39.55;;;;;;;1.17;52.72;98392.73;1699095;84;21431;-83
2022/03/16 01:31:12;;;;;;;85.60;39.27;;;;;;;1.14;52.65;98401.81;1698760;84;21008;-83
2022/03/16 01:33:38;;;;;;;83.58;39.80;;;;;;;1.12;52.70;98401.78;1702821;83;20987;-83
2022/03/16 01:36:05;;;;;;;88.12;41.88;;;;;;;1.17;52.82;98392.73;1705074;84;21393;-83
2022/03/16 01:38:32;;;;;;;90.35;40.95;;;;;;;1.15;52.86;98399.23;1704648;84;21022;-83
2022/03/16 01:40:58;;;;;;;95.50;43.55;;;;;;;1.16;53.04;98396.20;1704719;84;21046;-84
2022/03/16 01:43:25;;;;;;;84.52;41.85;;;;;;;1.17;53.11;98376.62;1704754;84;21007;-83
2022/03/16 01:45:52;;;;;;;95.00;41.98;;;;;;;1.17;53.07;98374.00;1704799;84;21004;-83
2022/03/16 01:48:20;;;;;;;93.97;43.55;;;;;;;1.15;52.88;98392.70;1705009;83;21508;-83
2022/03/16 01:50:48;;;;;;;100.82;42.48;;;;;;;1.18;52.90;98378.40;1659710;85;21014;-84
2022/03/16 01:53:16;;;;;;;90.07;41.77;;;;;;;1.21;52.95;98375.37;1703548;83;21535;-84
2022/03/16 01:55:43;;;;;;;94.87;43.00;;;;;;;1.23;52.68;98365.39;1697745;83;21487;-83
2022/03/16 01:58:10;;;;;;;85.65;40.17;;;;;;;1.28;52.67;98361.52;1722507;83;21017;-83
2022/03/16 02:00:41;;;;;;;84.77;40.23;;;;;;;1.26;52.63;98345.86;1722536;83;21029;-83
2022/03/16 02:03:08;;;;;;;82.33;38.83;;;;;;;1.25;52.97;98349.75;1705942;83;21006;-84
2022/03/16 02:05:38;;;;;;;90.25;38.13;;;;;;;1.26;52.77;98352.80;1685023;85;21448;-84
2022/03/16 02:08:08;;;;;;;98.47;37.10;;;;;;;1.27;52.46;98338.47;1685036;85;21133;-83
2022/03/16 02:10:35;;;;;;;81.65;37.45;;;;;;;1.29;52.33;98331.97;1685218;85;21006;-84
2022/03/16 02:13:02;;;;;;;88.62;36.98;;;;;;;1.31;52.43;98341.99;1699219;83;20994;-84
2022/03/16 02:15:29;;;;;;;84.42;36.17;;;;;;;1.27;52.65;98337.17;1685724;85;21009;-84
2022/03/16 02:17:56;;;;;;;75.03;35.17;;;;;;;1.27;52.24;98329.75;1673668;86;21027;-84
2022/03/16 02:20:27;;;;;;;72.05;34.58;;;;;;;1.25;52.27;98332.78;1685518;85;21009;-84
2022/03/16 02:23:03;;;;;;;73.97;33.48;;;;;;;1.23;52.15;98326.23;1662684;86;21017;-83
2022/03/16 02:25:30;;;;;;;90.65;34.83;;;;;;;1.24;52.16;98336.25;1685113;85;20983;-84
2022/03/16 02:27:59;;;;;;;75.08;33.20;;;;;;;1.27;52.03;98327.14;1685000;85;21011;-84
2022/03/16 02:30:28;;;;;;;74.62;31.45;;;;;;;1.25;51.85;98317.97;1685095;85;21338;-84
2022/03/16 02:32:56;;;;;;;71.47;32.88;;;;;;;1.25;51.77;98323.64;1696630;83;21021;-84
2022/03/16 02:35:23;;;;;;;62.95;31.62;;;;;;;1.25;51.69;98328.86;1656448;85;20991;-84
2022/03/16 02:37:51;;;;;;;69.70;31.65;;;;;;;1.22;51.66;98315.76;1615129;89;21035;-84
2022/03/16 02:40:20;;;;;;;59.85;30.68;;;;;;;1.23;51.63;98304.45;1616804;89;21054;-84
2022/03/16 02:42:48;;;;;;;67.32;32.28;;;;;;;1.22;51.77;98313.14;1630976;86;21096;-84
2022/03/16 02:45:15;;;;;;;60.48;29.12;;;;;;;1.21;51.51;98313.59;1685745;85;21008;-83
2022/03/16 02:47:42;;;;;;;57.23;29.87;;;;;;;1.22;51.39;98306.62;1669302;86;21040;-84
2022/03/16 02:50:12;;;;;;;56.55;30.35;;;;;;;1.23;51.17;98306.64;1661152;86;21410;-83
2022/03/16 02:52:40;;;;;;;65.30;29.45;;;;;;;1.25;51.24;98287.09;1657711;86;21068;-83
2022/03/16 02:55:07;;;;;;;59.67;30.37;;;;;;;1.27;51.11;98280.14;1609797;89;21041;-84
2022/03/16 02:57:35;;;;;;;59.65;30.55;;;;;;;1.28;51.01;98277.55;1636866;88;21029;-83
2022/03/16 03:00:04;;;;;;;57.20;29.07;;;;;;;1.28;51.07;98280.58;1606081;89;21017;-84
2022/03/16 03:02:30;;;;;;;61.10;29.48;;;;;;;1.24;50.93;98271.84;1667080;86;21036;-84
2022/03/16 03:04:57;;;;;;;56.77;29.50;;;;;;;1.27;50.99;98262.75;1639970;87;20997;-84
2022/03/16 03:07:23;;;;;;;54.03;29.37;;;;;;;1.26;50.84;98270.55;1658453;86;21036;-84
2022/03/16 03:09:50;;;;;;;66.33;28.92;;;;;;;1.24;51.01;98274.45;1642312;87;20984;-84
2022/03/16 03:12:16;;;;;;;62.33;30.52;;;;;;;1.26;50.75;98266.22;1639945;87;21056;-84
2022/03/16 03:14:43;;;;;;;59.80;28.67;;;;;;;1.26;50.69;98254.47;1657816;86;21045;-83
2022/03/16 03:17:10;;;;;;;58.33;28.83;;;;;;;1.26;50.62;98257.09;1652340;86;21420;-84
2022/03/16 03:19:36;;;;;;;60.70;29.10;;;;;;;1.30;50.64;98254.08;1669589;86;21056;-83
2022/03/16 03:22:05;;;;;;;61.83;30.57;;;;;;;1.32;50.51;98252.34;1669520;86;21111;-83
2022/03/16 03:24:32;;;;;;;58.20;28.87;;;;;;;1.34;50.46;98244.12;1645052;86;21024;-83
2022/03/16 03:26:59;;;;;;;62.93;29.87;;;;;;;1.40;50.38;98236.76;1639919;87;21069;-83
2022/03/16 03:29:25;;;;;;;58.10;27.67;;;;;;;1.40;50.74;98234.14;1642363;87;21012;-83
2022/03/16 03:31:52;;;;;;;59.67;28.70;;;;;;;1.42;50.59;98224.16;1639796;87;21035;-84
2022/03/16 03:34:18;;;;;;;65.70;30.55;;;;;;;1.45;50.38;98224.63;1649868;86;21047;-84
2022/03/16 03:36:45;;;;;;;55.05;28.57;;;;;;;1.48;50.28;98227.70;1668464;86;21498;-84
2022/03/16 03:39:11;;;;;;;65.08;28.87;;;;;;;1.52;50.18;98221.66;1668484;86;21007;-84
2022/03/16 03:41:38;;;;;;;59.42;29.63;;;;;;;1.56;50.01;98224.75;1668673;86;21067;-84
2022/03/16 03:44:05;;;;;;;65.65;29.05;;;;;;;1.58;49.90;98239.58;1672795;86;21414;-84
2022/03/16 03:46:32;;;;;;;58.23;28.83;;;;;;;1.62;49.77;98238.31;1675123;86;21021;-84
2022/03/16 03:48:58;;;;;;;59.42;28.92;;;;;;;1.66;49.64;98237.05;1692759;84;21012;-84
2022/03/16 03:51:25;;;;;;;57.73;27.22;;;;;;;1.68;49.38;98230.11;1699071;84;21028;-84
2022/03/16 03:53:51;;;;;;;56.90;27.45;;;;;;;1.70;49.41;98242.75;1695998;84;20992;-83
2022/03/16 03:56:18;;;;;;;59.93;29.63;;;;;;;1.73;49.23;98234.06;1693451;85;21455;-84
2022/03/16 03:58:45;;;;;;;63.30;28.25;;;;;;;1.75;49.22;98227.55;1693328;85;21100;-84
2022/03/16 04:01:11;;;;;;;58.83;29.12;;;;;;;1.75;49.13;98210.56;1693422;85;21064;-83
2022/03/16 04:03:38;;;;;;;61.40;29.60;;;;;;;1.77;49.12;98212.33;1696189;84;21437;-83
2022/03/16 04:06:04;;;;;;;56.83;28.52;;;;;;;1.78;48.98;98219.30;1699327;84;21052;-83
2022/03/16 04:08:31;;;;;;;58.68;29.87;;;;;;;1.81;48.90;98220.65;1699481;84;20977;-83
2022/03/16 04:10:58;;;;;;;59.42;29.67;;;;;;;1.83;48.83;98214.13;1698493;83;21035;-84
2022/03/16 04:13:24;;;;;;;56.95;29.37;;;;;;;1.82;48.78;98214.97;1697676;84;21462;-83
2022/03/16 04:15:51;;;;;;;56.88;28.73;;;;;;;1.81;48.73;98215.42;1699297;84;21064;-83
2022/03/16 04:18:17;;;;;;;63.28;29.77;;;;;;;1.83;48.63;98213.69;1699084;84;21039;-83
2022/03/16 04:20:44;;;;;;;57.90;28.67;;;;;;;1.84;48.57;98215.88;1699243;84;21055;-83
2022/03/16 04:23:10;;;;;;;58.50;29.32;;;;;;;1.84;48.52;98211.96;1693734;84;21012;-83
2022/03/16 04:25:36;;;;;;;56.83;29.18;;;;;;;1.85;48.50;98207.17;1693264;85;21044;-83
2022/03/16 04:28:04;;;;;;;58.17;29.27;;;;;;;1.83;48.43;98208.91;1693390;85;21013;-83
2022/03/16 04:30:30;;;;;;;55.05;28.75;;;;;;;1.84;48.40;98217.19;1693285;85;21037;-83
2022/03/16 04:32:57;;;;;;;58.28;29.67;;;;;;;1.86;48.40;98211.53;1698115;84;21024;-83
2022/03/16 04:35:23;;;;;;;63.63;30.30;;;;;;;1.89;48.43;98211.56;1699200;83;20992;-83
2022/03/16 04:37:50;;;;;;;56.63;29.18;;;;;;;1.90;48.36;98202.86;1699226;84;21489;-83
2022/03/16 04:40:16;;;;;;;64.77;30.37;;;;;;;1.94;48.33;98200.72;1699371;84;21055;-82
2022/03/16 04:42:43;;;;;;;59.33;29.35;;;;;;;1.93;48.24;98207.23;1699144;84;20997;-83
2022/03/16 04:45:10;;;;;;;59.35;29.37;;;;;;;1.93;48.21;98205.52;1699360;84;21012;-83
2022/03/16 04:47:37;;;;;;;60.28;30.70;;;;;;;1.95;48.14;98203.77;1699195;83;21039;-85
2022/03/16 04:50:05;;;;;;;59.00;30.00;;;;;;;1.96;48.16;98198.98;1706242;83;21402;-84
2022/03/16 04:52:33;;;;;;;57.23;30.52;;;;;;;1.96;48.07;98200.28;1700926;83;21006;-84
2022/03/16 04:54:59;;;;;;;58.52;29.90;;;;;;;1.99;48.00;98199.44;1693901;84;21299;-85
2022/03/16 04:57:25;;;;;;;58.25;29.67;;;;;;;1.98;48.02;98194.66;1692900;85;21081;-84
2022/03/16 04:59:52;;;;;;;63.75;31.25;;;;;;;1.99;47.96;98198.12;1693433;85;21013;-84
2022/03/16 05:02:18;;;;;;;59.80;30.45;;;;;;;2.00;47.84;98197.29;1694121;84;21433;-82
2022/03/16 05:04:45;;;;;;;67.97;31.42;;;;;;;2.02;47.88;98199.89;1697266;84;21011;-82
2022/03/16 05:07:11;;;;;;;64.87;30.50;;;;;;;2.02;47.93;98195.55;1665437;86;21012;-81
2022/03/16 05:09:37;;;;;;;77.08;33.02;;;;;;;2.04;47.88;98196.42;1698778;84;21024;-82
2022/03/16 05:12:08;;;;;;;67.90;30.77;;;;;;;2.07;47.85;98199.50;1699221;84;21005;-82
2022/03/16 05:14:34;;;;;;;66.33;32.05;;;;;;;2.07;47.77;98197.77;1699360;84;21460;-82
2022/03/16 05:17:00;;;;;;;64.15;32.98;;;;;;;2.09;47.77;98199.98;1699521;84;20962;-82
2022/03/16 05:19:28;;;;;;;63.13;31.80;;;;;;;2.08;47.73;98199.52;1699736;84;20997;-82
2022/03/16 05:21:54;;;;;;;67.87;32.70;;;;;;;2.08;47.68;98194.73;1699301;84;21023;-84
2022/03/16 05:24:22;;;;;;;67.72;31.35;;;;;;;2.11;47.64;98203.47;1665616;86;21451;-83
2022/03/16 05:26:49;;;;;;;63.08;31.87;;;;;;;2.13;47.55;98208.72;1699147;84;21451;-83
2022/03/16 05:29:17;;;;;;;61.75;32.50;;;;;;;2.12;47.54;98210.89;1699096;84;21075;-83
2022/03/16 05:31:43;;;;;;;62.03;31.12;;;;;;;2.13;47.37;98221.79;1665828;86;21061;-83
2022/03/16 05:34:10;;;;;;;61.90;30.17;;;;;;;2.13;47.40;98215.67;1665913;84;21017;-83
2022/03/16 05:36:37;;;;;;;68.47;32.55;;;;;;;2.15;47.20;98221.81;1665913;86;21070;-82
2022/03/16 05:39:04;;;;;;;71.28;31.93;;;;;;;2.17;47.23;98226.61;1665887;86;21002;-83
2022/03/16 05:41:31;;;;;;;58.15;30.95;;;;;;;2.17;47.24;98230.11;1665728;86;21081;-83
2022/03/16 05:43:58;;;;;;;59.27;32.20;;;;;;;2.19;47.25;98232.71;1668133;85;21417;-83
2022/03/16 05:46:25;;;;;;;68.50;33.25;;;;;;;2.19;47.29;98232.30;1669849;85;21021;-83
2022/03/16 05:48:51;;;;;;;61.73;31.77;;;;;;;2.18;47.36;98241.42;1670290;85;21033;-83
2022/03/16 05:51:17;;;;;;;68.78;31.90;;;;;;;2.19;47.32;98247.09;1654464;87;21029;-83
2022/03/16 05:53:44;;;;;;;70.37;35.03;;;;;;;2.20;47.33;98240.58;1647761;87;21014;-83
2022/03/16 05:56:10;;;;;;;61.05;32.08;;;;;;;2.10;47.70;98248.79;1653541;86;21045;-83
2022/03/16 05:58:37;;;;;;;63.02;32.58;;;;;;;2.07;47.24;98258.32;1653920;86;21129;-83
2022/03/16 06:01:03;;;;;;;71.80;36.90;;;;;;;2.09;47.43;98266.66;1635998;87;21056;-83
2022/03/16 06:03:30;;;;;;;78.47;38.53;;;;;;;2.08;48.13;98274.48;1637047;88;21033;-83
2022/03/16 06:05:56;;;;;;;83.40;39.33;;;;;;;2.06;48.59;98278.37;1654278;87;21478;-84
2022/03/16 06:08:23;;;;;;;79.37;39.08;;;;;;;2.05;49.36;98286.20;1654629;87;21049;-84
2022/03/16 06:10:49;;;;;;;77.37;38.20;;;;;;;2.02;49.67;98291.39;1636850;87;20997;-84
2022/03/16 06:13:17;;;;;;;78.80;39.53;;;;;;;1.97;49.53;98275.26;1654562;87;21005;-84
2022/03/16 06:15:44;;;;;;;83.17;41.00;;;;;;;1.95;51.64;98282.19;1637218;88;21048;-84
2022/03/16 06:18:11;;;;;;;77.82;39.18;;;;;;;1.95;50.51;98277.41;1654426;87;21060;-84
2022/03/16 06:20:38;;;;;;;80.75;39.65;;;;;;;1.94;50.61;98279.14;1637106;88;21053;-84
2022/03/16 06:23:05;;;;;;;85.85;38.42;;;;;;;1.96;51.07;98282.62;1654529;86;21497;-83
2022/03/16 06:25:34;;;;;;;75.22;39.53;;;;;;;1.95;51.56;98282.64;1654445;87;21029;-83
2022/03/16 06:28:01;;;;;;;80.65;39.80;;;;;;;1.81;54.42;98279.87;1636837;87;21073;-83
2022/03/16 06:30:28;;;;;;;77.10;38.35;;;;;;;1.70;54.29;98274.11;1653790;86;21205;-84
2022/03/16 06:32:55;;;;;;;81.97;38.25;;;;;;;1.61;55.64;98278.37;1646868;87;21112;-83
2022/03/16 06:35:22;;;;;;;78.62;38.50;;;;;;;1.62;53.48;98267.05;1646470;86;20978;-83
2022/03/16 06:37:48;;;;;;;77.25;37.50;;;;;;;1.62;53.98;98271.83;1650465;87;21009;-83
2022/03/16 06:40:15;;;;;;;77.03;37.38;;;;;;;1.60;53.21;98273.98;1649500;86;21022;-83
2022/03/16 06:42:58;;;;;;;74.15;37.78;;;;;;;1.52;54.85;98269.56;1650757;87;21415;-83
2022/03/16 06:45:28;;;;;;;82.08;36.35;;;;;;;1.52;54.83;98269.56;1638587;87;21080;-84
2022/03/16 06:47:57;;;;;;;77.70;37.40;;;;;;;1.54;53.55;98257.83;1636955;88;21088;-84
2022/03/16 06:50:24;;;;;;;105.05;48.58;;;;;;;1.53;54.00;98260.00;1651015;87;21045;-83
2022/03/16 06:52:54;;;;;;;75.40;35.60;;;;;;;1.59;53.34;98253.53;1652463;87;21041;-84
2022/03/16 06:55:21;;;;;;;69.75;34.63;;;;;;;1.63;53.23;98255.73;1652470;86;21077;-83
2022/03/16 06:57:48;;;;;;;72.65;34.88;;;;;;;1.62;53.47;98255.30;1652530;87;21057;-84
2022/03/16 07:00:15;;;;;;;78.17;34.78;;;;;;;1.67;52.64;98244.02;1635482;86;21038;-85
2022/03/16 07:02:56;;;;;;;73.65;35.50;;;;;;;1.71;52.49;98248.86;1633828;88;21045;-84
2022/03/16 07:05:29;;;;;;;75.35;35.00;;;;;;;1.76;52.18;98246.28;1633961;88;21038;-84
2022/03/16 07:07:58;;;;;;;79.15;35.68;;;;;;;1.84;52.15;98247.24;1633656;88;21008;-84
2022/03/16 07:10:26;;;;;;;59.60;32.45;;;;;;;1.87;51.75;98247.25;1638485;88;21019;-84
2022/03/16 07:12:52;;;;;;;73.47;36.15;;;;;;;1.86;51.55;98244.20;1658456;86;21009;-84
2022/03/16 07:15:19;;;;;;;64.12;32.95;;;;;;;1.89;51.42;98248.58;1643665;87;21044;-84
2022/03/16 07:17:46;;;;;;;68.92;33.20;;;;;;;1.92;51.26;98251.23;1658455;86;21036;-84
2022/03/16 07:20:13;;;;;;;67.55;33.30;;;;;;;1.98;51.04;98243.44;1643857;87;21033;-83
2022/03/16 07:22:40;;;;;;;68.00;33.95;;;;;;;2.04;50.92;98243.94;1653243;86;21178;-83
2022/03/16 07:25:09;;;;;;;63.65;32.63;;;;;;;2.10;50.78;98241.36;1689012;85;21041;-83
2022/03/16 07:27:38;;;;;;;67.92;33.50;;;;;;;2.17;50.70;98233.14;1689138;85;21005;-84
2022/03/16 07:30:08;;;;;;;68.28;33.98;;;;;;;2.25;50.58;98239.32;1692754;84;20950;-84
2022/03/16 07:32:39;;;;;;;72.10;34.50;;;;;;;2.31;50.48;98235.86;1694204;85;21045;-83
2022/03/16 07:35:09;;;;;;;73.92;34.27;;;;;;;2.38;50.44;98226.75;1686906;84;20968;-83
2022/03/16 07:37:38;;;;;;;77.55;34.67;;;;;;;2.46;50.57;98229.42;1701092;84;21068;-83
2022/03/16 07:40:06;;;;;;;77.80;33.00;;;;;;;2.49;51.17;98224.67;1658505;85;20966;-83
2022/03/16 07:42:33;;;;;;;65.95;34.55;;;;;;;2.46;51.66;98220.72;1643426;87;21010;-82
2022/03/16 07:44:59;;;;;;;68.05;35.38;;;;;;;2.42;51.90;98225.48;1640538;87;20961;-82
2022/03/16 07:47:26;;;;;;;72.20;36.58;;;;;;;2.37;51.79;98215.86;1637488;87;21447;-82
2022/03/16 07:49:56;;;;;;;96.57;45.88;;;;;;;2.38;51.89;98215.44;1642495;85;21032;-82
2022/03/16 07:52:25;;;;;;;76.70;38.20;;;;;;;2.40;52.38;98208.91;1705232;83;21041;-82
2022/03/16 07:54:51;;;;;;;66.60;34.23;;;;;;;2.41;52.98;98206.28;1664619;86;21004;-82
2022/03/16 07:57:18;;;;;;;75.87;37.65;;;;;;;2.42;53.78;98203.24;1665185;86;21489;-82
2022/03/16 07:59:44;;;;;;;95.60;41.05;;;;;;;2.40;54.04;98204.53;1666657;84;20993;-83
2022/03/16 08:02:16;;;;;;;90.30;42.65;;;;;;;2.36;55.00;98198.83;1674611;85;21033;-83
2022/03/16 08:04:43;;;;;;;89.15;42.40;;;;;;;2.33;56.16;98189.69;1657850;87;21009;-83
2022/03/16 08:07:10;;;;;;;90.25;42.33;;;;;;;2.29;55.96;98190.52;1666498;85;21435;-85
2022/03/16 08:09:37;;;;;;;84.32;41.18;;;;;;;2.19;57.09;98186.53;1637140;88;21512;-84
2022/03/16 08:12:05;;;;;;;89.35;42.85;;;;;;;2.12;58.21;98180.83;1698323;84;21067;-84
2022/03/16 08:14:32;;;;;;;84.85;40.12;;;;;;;2.12;59.16;98187.36;1664773;86;21040;-84
2022/03/16 08:16:59;;;;;;;80.97;39.40;;;;;;;2.07;59.06;98179.47;1697899;84;21065;-84
2022/03/16 08:19:25;;;;;;;87.85;42.40;;;;;;;2.03;59.62;98185.53;1698684;84;20938;-84
2022/03/16 08:21:52;;;;;;;75.08;39.75;;;;;;;1.97;60.25;98184.19;1699159;84;21028;-84
2022/03/16 08:24:18;;;;;;;80.67;38.08;;;;;;;1.92;61.24;98183.27;1699126;84;20994;-83
2022/03/16 08:26:44;;;;;;;70.30;38.58;;;;;;;1.87;61.70;98178.44;1698912;84;21013;-84
2022/03/16 08:29:11;;;;;;;78.75;38.90;;;;;;;1.86;61.56;98173.63;1714334;83;20992;-85
2022/03/16 08:31:38;;;;;;;82.72;40.38;;;;;;;1.84;61.91;98162.30;1723751;83;20988;-85
2022/03/16 08:34:06;;;;;;;82.40;41.83;;;;;;;1.87;62.25;98160.14;1724125;83;20960;-86
2022/03/16 08:36:32;;;;;;;88.78;42.10;;;;;;;1.88;64.08;98152.33;1708261;83;21005;-85
2022/03/16 08:39:06;;;;;;;79.40;40.03;;;;;;;1.93;63.15;98147.12;1699284;84;21402;-86
2022/03/16 08:41:44;;;;;;;80.12;42.10;;;;;;;1.93;63.63;98146.70;1698389;83;21041;-86
2022/03/16 08:44:19;;;;;;;84.15;42.80;;;;;;;1.96;63.49;98141.47;1665870;86;21041;-88
2022/03/16 08:46:45;;;;;;;86.57;42.27;;;;;;;1.99;64.37;98147.16;1665287;86;20989;-88
2022/03/16 08:49:12;;;;;;;77.72;43.15;;;;;;;2.00;64.60;98148.93;1665603;86;21501;-85
2022/03/16 08:51:39;;;;;;;86.87;44.67;;;;;;;2.03;64.91;98148.93;1665634;86;21072;-86
2022/03/16 08:54:06;;;;;;;86.82;43.40;;;;;;;1.99;65.32;98145.84;1665051;86;21052;-86
2022/03/16 08:56:32;;;;;;;83.25;43.48;;;;;;;1.97;65.64;98134.52;1664923;86;21016;-87
2022/03/16 08:59:00;;;;;;;96.08;46.55;;;;;;;1.96;65.63;98136.70;1658973;86;21452;-89
2022/03/16 09:01:30;;;;;;;91.50;44.13;;;;;;;2.01;67.25;98139.33;1654211;87;21082;-87
2022/03/16 09:03:59;;;;;;;86.92;44.20;;;;;;;2.04;65.63;98136.30;1637097;88;21020;-88
2022/03/16 09:06:26;;;;;;;86.08;44.40;;;;;;;2.04;66.60;98136.30;1664074;85;21475;-87
2022/03/16 09:08:52;;;;;;;86.75;44.73;;;;;;;2.01;66.55;98127.14;1658920;86;20965;-87
2022/03/16 09:11:19;;;;;;;94.45;45.88;;;;;;;2.01;67.05;98124.95;1661928;86;21424;-88
2022/03/16 09:13:47;;;;;;;88.70;44.42;;;;;;;2.05;66.78;98120.19;1665670;86;20986;-87
2022/03/16 09:16:15;;;;;;;86.17;44.33;;;;;;;2.03;67.61;98120.63;1711648;83;21016;-88
2022/03/16 09:18:44;;;;;;;90.80;46.42;;;;;;;2.00;67.95;98124.09;1714665;83;21758;-88
2022/03/16 09:21:11;;;;;;;83.52;44.58;;;;;;;1.95;68.19;98125.35;1719703;83;21043;-87
2022/03/16 09:23:37;;;;;;;93.52;49.25;;;;;;;1.92;68.50;98124.46;1715714;83;20976;-87
2022/03/16 09:26:05;;;;;;;84.72;48.30;;;;;;;1.86;68.21;98121.36;1674322;84;20981;-87
2022/03/16 09:28:32;;;;;;;89.85;47.20;;;;;;;1.87;69.06;98120.94;1665456;86;21027;-85
2022/03/16 09:30:59;;;;;;;96.20;46.45;;;;;;;1.84;71.25;98116.57;1665432;86;20946;-86
2022/03/16 09:33:25;;;;;;;95.28;48.15;;;;;;;1.83;70.56;98109.59;1663912;86;21053;-86
2022/03/16 09:35:52;;;;;;;92.62;47.25;;;;;;;1.83;71.14;98110.91;1638127;86;21017;-85
2022/03/16 09:38:19;;;;;;;92.67;45.33;;;;;;;1.79;70.12;98113.91;1657804;87;21086;-86
2022/03/16 09:40:53;;;;;;;91.72;47.13;;;;;;;1.70;71.72;98108.19;1665499;86;21043;-85
2022/03/16 09:43:24;;;;;;;96.63;45.60;;;;;;;1.73;70.05;98108.64;1625998;88;21009;-85
2022/03/16 09:46:07;;;;;;;85.67;45.15;;;;;;;1.71;71.08;98098.62;1679697;84;20988;-87
2022/03/16 09:48:34;;;;;;;98.70;48.52;;;;;;;1.75;71.42;98100.81;1707940;83;21000;-85
2022/03/16 09:51:01;;;;;;;101.65;48.00;;;;;;;1.80;70.37;98097.39;1717692;83;21075;-85
2022/03/16 09:53:32;;;;;;;89.55;45.00;;;;;;;1.83;72.38;98110.45;1715909;83;21027;-84
2022/03/16 09:55:59;;;;;;;89.37;46.18;;;;;;;1.84;70.62;98110.89;1721066;83;21008;-86
2022/03/16 09:58:26;;;;;;;90.25;44.15;;;;;;;1.83;70.94;98112.21;1721640;83;21020;-85
2022/03/16 10:00:53;;;;;;;91.20;46.00;;;;;;;1.82;70.95;98113.94;1722348;83;21020;-87
2022/03/16 10:03:28;;;;;;;92.75;47.58;;;;;;;1.84;71.49;98116.57;1719516;83;20968;-86
2022/03/16 10:05:55;;;;;;;93.27;47.00;;;;;;;1.88;70.59;98113.12;1724225;83;21034;-87
2022/03/16 10:08:34;;;;;;;97.55;45.58;;;;;;;1.95;71.24;98116.66;1724120;83;21152;-85
2022/03/16 10:14:11;;;;;;;87.67;42.93;;;;;;;2.05;71.54;98109.73;1690414;84;20991;-86
2022/03/16 10:19:26;;;;;;;87.67;41.45;;;;;;;2.14;73.20;98115.45;1701967;84;20949;-86
2022/03/16 10:22:04;;;;;;;80.50;41.63;;;;;;;2.23;72.77;98104.63;1709176;83;20992;-85
2022/03/16 10:24:30;;;;;;;93.50;40.43;;;;;;;2.26;72.85;98098.95;1724560;83;21032;-82
2022/03/16 10:26:59;;;;;;;76.90;40.67;;;;;;;2.29;73.00;98101.18;1724702;83;21011;-85
2022/03/16 10:29:31;;;;;;;72.05;39.83;;;;;;;2.34;73.31;98098.16;1722487;83;21047;-87
2022/03/16 10:32:05;;;;;;;73.10;38.75;;;;;;;2.39;74.29;98099.47;1704112;83;20987;-85
2022/03/16 10:34:34;;;;;;;76.13;40.33;;;;;;;2.38;73.50;98105.58;1700955;83;21126;-83
2022/03/16 10:37:09;;;;;;;81.08;41.85;;;;;;;2.34;74.42;98107.73;1726766;83;20940;-86
2022/03/16 10:39:34;;;;;;;79.92;43.25;;;;;;;2.27;74.93;98102.89;1722359;83;21008;-86
2022/03/16 10:48:22;;;;;;;92.60;45.88;;;;;;;2.02;76.46;98105.36;1718564;83;21020;-86
2022/03/16 10:51:02;;;;;;;91.95;45.15;;;;;;;1.98;75.69;98107.09;1698471;83;21009;-85
2022/03/16 10:53:30;;;;;;;96.78;48.28;;;;;;;1.93;75.63;98110.52;1686145;84;21157;-86
2022/03/16 10:56:01;;;;;;;99.87;47.95;;;;;;;1.91;76.87;98113.13;1690157;84;21030;-87
2022/03/16 10:58:31;;;;;;;98.80;48.35;;;;;;;1.89;75.41;98113.97;1671984;84;21024;-86
2022/03/16 11:00:58;;;;;;;99.65;48.63;;;;;;;1.88;75.78;98109.62;1685394;84;21001;-85
2022/03/16 11:03:27;;;;;;;107.15;51.55;;;;;;;1.90;75.33;98113.10;1691412;83;20941;-85
2022/03/16 11:05:56;;;;;;;100.42;49.25;;;;;;;1.88;76.30;98115.73;1692669;84;21020;-84
2022/03/16 11:08:25;;;;;;;97.90;47.78;;;;;;;1.85;76.81;98105.24;1689395;84;21014;-86
2022/03/16 11:10:57;;;;;;;92.55;48.87;;;;;;;1.86;77.96;98113.52;1689566;84;20993;-87
2022/03/16 11:13:35;;;;;;;89.75;47.95;;;;;;;1.88;77.31;98108.31;1692648;84;21013;-87
2022/03/16 11:16:01;;;;;;;90.28;48.13;;;;;;;1.88;77.18;98120.95;1694019;84;21457;-87
2022/03/16 11:18:27;;;;;;;86.60;45.60;;;;;;;1.91;78.28;98116.19;1689413;84;20992;-87
2022/03/16 11:21:05;;;;;;;87.08;43.42;;;;;;;1.92;78.32;98110.09;1689132;84;21470;-86
2022/03/16 11:27:00;;;;;;;84.25;44.75;;;;;;;1.91;79.61;98113.13;1692879;84;21439;-86
2022/03/16 11:29:51;;;;;;;82.50;44.33;;;;;;;1.93;78.57;98117.05;1688896;84;21043;-86
2022/03/16 11:32:20;;;;;;;85.60;43.30;;;;;;;1.98;79.14;98107.09;1688033;84;21430;-88
2022/03/16 11:34:58;;;;;;;84.58;44.48;;;;;;;2.02;78.42;98114.51;1690699;84;21352;-88
2022/03/16 11:37:42;;;;;;;83.27;42.95;;;;;;;2.08;78.72;98112.38;1693086;84;21045;-87
2022/03/16 11:40:25;;;;;;;82.02;42.78;;;;;;;2.17;78.45;98113.75;1691989;84;21036;-86
2022/03/16 11:43:12;;;;;;;79.15;43.05;;;;;;;2.23;80.47;98109.85;1698421;84;21041;-89